Time;durP1;ratioP1;P1;durP2;ratioP2;P2;SDS_P1;SDS_P2;PMS_P1;PMS_P2;Temp;Humidity;BMP_temperature;BMP_pressure;BME280_temperature;BME280_humidity;BME280_pressure;Samples;Min_cycle;Max_cycle;Signal;HPM_P1;HPM_P2
2021/04/19 00:01:08;;;;;;;37.43;24.83;;;;;;;;;;5037039;28;20259;-77
2021/04/19 00:03:33;;;;;;;30.47;23.57;;;;;;;;;;5037292;28;20172;-78
2021/04/19 00:05:59;;;;;;;33.47;24.33;;;;;;;;;;5036973;28;20172;-77
2021/04/19 00:08:24;;;;;;;32.30;24.33;;;;;;;;;;5036794;28;20204;-78
2021/04/19 00:10:50;;;;;;;31.97;24.30;;;;;;;;;;5037328;28;20176;-78
2021/04/19 00:13:15;;;;;;;32.17;23.83;;;;;;;;;;5036729;28;20176;-78
2021/04/19 00:15:40;;;;;;;33.97;25.07;;;;;;;;;;5036967;28;20530;-78
2021/04/19 00:18:06;;;;;;;30.13;23.80;;;;;;;;;;5037848;28;20259;-78
2021/04/19 00:20:31;;;;;;;33.10;24.03;;;;;;;;;;5036707;28;20173;-78
2021/04/19 00:22:57;;;;;;;31.80;24.17;;;;;;;;;;5036699;28;20177;-77
2021/04/19 00:25:22;;;;;;;32.57;25.87;;;;;;;;;;5036816;28;20179;-77
2021/04/19 00:27:48;;;;;;;37.63;28.00;;;;;;;;;;5036750;28;20204;-78
2021/04/19 00:30:14;;;;;;;35.17;26.43;;;;;;;;;;5036732;28;20612;-78
2021/04/19 00:32:39;;;;;;;36.17;26.77;;;;;;;;;;5036902;28;20168;-78
2021/04/19 00:35:06;;;;;;;36.13;25.33;;;;;;;;;;5037213;28;20164;-78
2021/04/19 00:37:31;;;;;;;37.47;26.20;;;;;;;;;;5037191;28;20628;-78
2021/04/19 00:39:56;;;;;;;32.67;24.30;;;;;;;;;;5036350;28;20254;-78
2021/04/19 00:42:22;;;;;;;32.80;24.60;;;;;;;;;;5036261;28;20203;-78
2021/04/19 00:44:47;;;;;;;33.13;23.47;;;;;;;;;;5036113;28;20196;-78
2021/04/19 00:47:13;;;;;;;34.53;25.40;;;;;;;;;;5036370;28;20199;-77
2021/04/19 00:49:38;;;;;;;32.10;24.33;;;;;;;;;;5036379;28;20503;-77
2021/04/19 00:52:04;;;;;;;29.80;22.60;;;;;;;;;;5036299;28;20195;-77
2021/04/19 00:54:30;;;;;;;30.77;22.77;;;;;;;;;;5036094;28;20219;-78
2021/04/19 00:56:55;;;;;;;26.83;21.40;;;;;;;;;;5036446;28;20524;-78
2021/04/19 00:59:21;;;;;;;29.60;23.20;;;;;;;;;;5035479;28;20181;-78
2021/04/19 01:01:47;;;;;;;31.00;23.10;;;;;;;;;;5035865;28;20161;-78
2021/04/19 01:04:12;;;;;;;26.13;21.50;;;;;;;;;;5035922;28;20172;-78
2021/04/19 01:06:38;;;;;;;26.60;21.10;;;;;;;;;;5035791;28;20164;-78
2021/04/19 01:09:04;;;;;;;30.13;22.77;;;;;;;;;;5035891;28;20283;-78
2021/04/19 01:11:29;;;;;;;34.17;26.03;;;;;;;;;;5036272;28;20236;-78
2021/04/19 01:13:55;;;;;;;44.13;33.83;;;;;;;;;;5035763;28;20207;-78
2021/04/19 01:16:20;;;;;;;40.03;29.93;;;;;;;;;;5035635;28;20222;-78
2021/04/19 01:18:45;;;;;;;28.07;21.40;;;;;;;;;;5036136;28;20566;-78
2021/04/19 01:21:11;;;;;;;26.13;21.50;;;;;;;;;;5036064;28;20169;-78
2021/04/19 01:23:39;;;;;;;26.33;20.30;;;;;;;;;;5036070;28;20168;-78
2021/04/19 01:26:05;;;;;;;27.07;19.80;;;;;;;;;;5035873;28;20173;-78
2021/04/19 01:28:30;;;;;;;25.57;18.80;;;;;;;;;;5035748;28;20275;-78
2021/04/19 01:30:56;;;;;;;24.00;19.10;;;;;;;;;;5035708;28;20222;-78
2021/04/19 01:33:22;;;;;;;24.37;19.47;;;;;;;;;;5035416;28;20165;-78
2021/04/19 01:35:47;;;;;;;22.73;19.07;;;;;;;;;;5035653;28;20201;-78
2021/04/19 01:38:14;;;;;;;23.97;18.47;;;;;;;;;;5035302;28;20165;-78
2021/04/19 01:40:39;;;;;;;23.13;19.00;;;;;;;;;;5035474;28;20172;-78
2021/04/19 01:43:05;;;;;;;36.67;28.30;;;;;;;;;;5035236;28;20192;-78
2021/04/19 01:45:30;;;;;;;29.53;22.80;;;;;;;;;;5035297;28;20219;-78
2021/04/19 01:47:56;;;;;;;31.70;23.97;;;;;;;;;;5035045;28;20200;-78
2021/04/19 01:50:23;;;;;;;28.90;22.90;;;;;;;;;;5035925;28;20263;-78
2021/04/19 01:52:48;;;;;;;29.90;23.17;;;;;;;;;;5035085;28;20525;-78
2021/04/19 01:55:15;;;;;;;27.57;21.90;;;;;;;;;;5035255;28;20173;-77
2021/04/19 01:57:41;;;;;;;29.83;22.33;;;;;;;;;;5035064;28;20173;-77
2021/04/19 02:00:07;;;;;;;36.73;25.73;;;;;;;;;;5035284;28;20663;-77
2021/04/19 02:02:41;;;;;;;36.77;26.43;;;;;;;;;;5035385;28;20207;-77
2021/04/19 02:05:10;;;;;;;33.43;26.27;;;;;;;;;;5035871;28;20176;-78
2021/04/19 02:08:02;;;;;;;31.77;24.47;;;;;;;;;;5034854;28;20209;-77
2021/04/19 02:10:31;;;;;;;30.33;23.63;;;;;;;;;;5034755;28;20626;-77
2021/04/19 02:13:03;;;;;;;31.40;25.03;;;;;;;;;;5034383;28;20172;-77
2021/04/19 02:15:31;;;;;;;30.43;24.10;;;;;;;;;;5035025;28;20302;-78
2021/04/19 02:18:15;;;;;;;31.67;25.93;;;;;;;;;;5034705;28;20191;-78
2021/04/19 02:20:46;;;;;;;31.70;24.40;;;;;;;;;;5034886;28;20177;-78
2021/04/19 02:23:23;;;;;;;33.77;24.90;;;;;;;;;;5034371;28;20184;-78
2021/04/19 02:25:50;;;;;;;37.10;25.87;;;;;;;;;;5034981;28;20161;-78
2021/04/19 02:28:23;;;;;;;35.03;26.30;;;;;;;;;;5034474;28;20207;-78
2021/04/19 02:30:50;;;;;;;36.30;26.43;;;;;;;;;;5034227;28;20574;-78
2021/04/19 02:33:17;;;;;;;40.33;27.83;;;;;;;;;;5034135;28;20180;-78
2021/04/19 02:35:44;;;;;;;32.97;24.97;;;;;;;;;;5034705;28;20177;-78
2021/04/19 02:38:10;;;;;;;36.17;25.53;;;;;;;;;;5034126;28;20258;-78
2021/04/19 02:40:37;;;;;;;41.43;29.07;;;;;;;;;;5034353;28;20164;-78
2021/04/19 02:43:02;;;;;;;37.53;26.80;;;;;;;;;;5034320;28;20199;-78
2021/04/19 02:45:28;;;;;;;37.50;26.70;;;;;;;;;;5034295;28;20267;-77
2021/04/19 02:47:53;;;;;;;37.67;25.93;;;;;;;;;;5032879;28;20633;-78
2021/04/19 02:50:21;;;;;;;38.03;26.90;;;;;;;;;;5034139;28;20176;-78
2021/04/19 02:52:48;;;;;;;36.10;26.33;;;;;;;;;;5034684;28;20183;-78
2021/04/19 02:55:14;;;;;;;37.13;25.53;;;;;;;;;;5034691;28;20176;-78
2021/04/19 02:57:46;;;;;;;37.47;26.80;;;;;;;;;;5034140;28;20263;-78
2021/04/19 03:00:12;;;;;;;36.83;25.83;;;;;;;;;;5033705;28;20201;-78
2021/04/19 03:02:37;;;;;;;39.83;26.67;;;;;;;;;;5034704;28;20177;-77
2021/04/19 03:05:05;;;;;;;37.07;26.30;;;;;;;;;;5034623;28;20187;-78
2021/04/19 03:07:34;;;;;;;39.73;28.67;;;;;;;;;;5033573;28;20180;-78
2021/04/19 03:10:02;;;;;;;42.27;28.87;;;;;;;;;;5033626;28;20176;-78
2021/04/19 03:12:28;;;;;;;41.87;29.70;;;;;;;;;;5033872;28;20283;-77
2021/04/19 03:14:55;;;;;;;43.77;30.03;;;;;;;;;;5033529;28;20200;-77
2021/04/19 03:17:22;;;;;;;44.70;30.87;;;;;;;;;;5034039;28;20179;-78
2021/04/19 03:19:51;;;;;;;46.97;31.43;;;;;;;;;;5033956;28;20168;-78
2021/04/19 03:22:16;;;;;;;42.60;28.80;;;;;;;;;;5034876;28;20540;-77
2021/04/19 03:24:43;;;;;;;43.33;29.17;;;;;;;;;;5037979;28;20183;-78
2021/04/19 03:27:08;;;;;;;49.67;32.13;;;;;;;;;;5037853;28;20176;-77
2021/04/19 03:29:34;;;;;;;56.97;35.07;;;;;;;;;;5037767;28;20210;-77
2021/04/19 03:32:05;;;;;;;47.30;31.87;;;;;;;;;;5037823;28;20570;-77
2021/04/19 03:34:33;;;;;;;44.40;30.20;;;;;;;;;;5038351;28;20217;-77
2021/04/19 03:37:12;;;;;;;45.03;29.47;;;;;;;;;;5037738;28;20184;-78
2021/04/19 03:39:38;;;;;;;42.20;30.33;;;;;;;;;;5012385;28;724698;-77
2021/04/19 03:42:04;;;;;;;44.67;30.23;;;;;;;;;;5037468;28;20180;-77
2021/04/19 03:44:32;;;;;;;58.63;34.53;;;;;;;;;;5037225;28;20188;-77
2021/04/19 03:46:59;;;;;;;55.07;33.50;;;;;;;;;;5037504;28;20195;-77
2021/04/19 03:49:27;;;;;;;52.00;32.53;;;;;;;;;;5037441;28;20250;-77
2021/04/19 03:51:56;;;;;;;49.80;32.87;;;;;;;;;;5037462;28;20169;-77
2021/04/19 03:54:22;;;;;;;48.40;32.70;;;;;;;;;;5037375;28;20168;-78
2021/04/19 03:56:48;;;;;;;43.63;29.07;;;;;;;;;;5037478;28;20173;-77
2021/04/19 03:59:14;;;;;;;41.33;27.17;;;;;;;;;;5037534;28;20164;-78
2021/04/19 04:01:41;;;;;;;40.17;26.80;;;;;;;;;;5038114;28;20196;-78
2021/04/19 04:04:08;;;;;;;44.60;27.37;;;;;;;;;;5037114;28;20169;-78
2021/04/19 04:06:33;;;;;;;51.47;27.77;;;;;;;;;;5037170;28;20209;-78
2021/04/19 04:08:58;;;;;;;50.77;27.50;;;;;;;;;;5036877;28;20193;-78
2021/04/19 04:11:25;;;;;;;46.23;26.33;;;;;;;;;;5036851;28;20745;-77
2021/04/19 04:13:51;;;;;;;42.33;25.80;;;;;;;;;;5037386;28;20192;-77
2021/04/19 04:16:16;;;;;;;50.27;25.43;;;;;;;;;;5037129;28;20627;-77
2021/04/19 04:18:41;;;;;;;47.10;22.40;;;;;;;;;;5037349;28;20175;-78
2021/04/19 04:21:07;;;;;;;43.50;21.77;;;;;;;;;;5037435;28;20481;-78
2021/04/19 04:23:32;;;;;;;64.83;22.50;;;;;;;;;;5037415;28;20172;-77
2021/04/19 04:25:58;;;;;;;57.20;27.23;;;;;;;;;;5037089;28;20165;-77
2021/04/19 04:28:23;;;;;;;73.40;22.13;;;;;;;;;;5036787;28;20227;-77
2021/04/19 04:30:48;;;;;;;67.53;21.03;;;;;;;;;;5036516;28;20214;-77
2021/04/19 04:33:14;;;;;;;70.87;18.20;;;;;;;;;;5037092;28;20168;-77
2021/04/19 04:35:39;;;;;;;83.17;18.00;;;;;;;;;;5036000;28;20169;-77
2021/04/19 04:38:05;;;;;;;57.37;18.63;;;;;;;;;;5036712;28;20510;-78
2021/04/19 04:40:31;;;;;;;44.20;18.73;;;;;;;;;;5036992;28;20279;-77
2021/04/19 04:43:10;;;;;;;74.40;19.10;;;;;;;;;;5036629;28;20178;-77
2021/04/19 04:45:35;;;;;;;43.23;18.50;;;;;;;;;;5036245;28;20177;-77
2021/04/19 04:48:05;;;;;;;31.83;19.47;;;;;;;;;;5036641;28;20219;-77
2021/04/19 04:50:30;;;;;;;36.30;19.10;;;;;;;;;;5036804;28;20172;-78
2021/04/19 04:53:16;;;;;;;29.00;20.13;;;;;;;;;;5036321;28;20218;-77
2021/04/19 04:55:42;;;;;;;30.37;20.00;;;;;;;;;;5035951;28;20200;-77
2021/04/19 04:58:08;;;;;;;27.67;18.07;;;;;;;;;;5036028;28;20207;-78
2021/04/19 05:00:34;;;;;;;26.63;17.43;;;;;;;;;;5036237;28;20173;-78
2021/04/19 05:03:00;;;;;;;26.77;16.67;;;;;;;;;;5036470;28;20172;-78
2021/04/19 05:05:25;;;;;;;19.70;15.10;;;;;;;;;;5036114;28;20196;-78
2021/04/19 05:07:52;;;;;;;15.83;14.03;;;;;;;;;;5035958;28;20211;-77
2021/04/19 05:10:18;;;;;;;22.40;16.07;;;;;;;;;;5036057;28;20165;-78
2021/04/19 05:12:43;;;;;;;19.83;15.40;;;;;;;;;;5035766;28;20165;-78
2021/04/19 05:15:12;;;;;;;23.90;15.43;;;;;;;;;;5036009;28;20161;-78
2021/04/19 05:17:37;;;;;;;20.90;16.57;;;;;;;;;;5035932;28;20161;-78
2021/04/19 05:20:07;;;;;;;21.20;16.30;;;;;;;;;;5036216;28;20171;-78
2021/04/19 05:22:32;;;;;;;20.87;15.40;;;;;;;;;;5035976;28;20173;-78
2021/04/19 05:24:58;;;;;;;24.83;19.83;;;;;;;;;;5035556;28;20179;-78
2021/04/19 05:27:23;;;;;;;27.83;21.13;;;;;;;;;;5035780;28;20672;-78
2021/04/19 05:29:49;;;;;;;19.03;17.03;;;;;;;;;;5035407;28;20696;-78
2021/04/19 05:32:17;;;;;;;19.03;16.37;;;;;;;;;;5036274;28;20631;-78
2021/04/19 05:34:42;;;;;;;18.07;15.80;;;;;;;;;;5035318;28;20633;-78
2021/04/19 05:37:09;;;;;;;17.50;15.63;;;;;;;;;;5035276;28;20251;-78
2021/04/19 05:39:34;;;;;;;19.30;15.97;;;;;;;;;;5035553;28;20228;-78
2021/04/19 05:42:00;;;;;;;18.70;16.70;;;;;;;;;;5035378;28;20653;-78
2021/04/19 05:44:26;;;;;;;18.10;16.20;;;;;;;;;;5035093;28;20267;-78
2021/04/19 05:46:52;;;;;;;18.93;16.87;;;;;;;;;;5035959;28;20559;-78
2021/04/19 05:49:18;;;;;;;19.40;17.17;;;;;;;;;;5035319;28;20604;-78
2021/04/19 05:51:44;;;;;;;20.40;18.30;;;;;;;;;;5033193;28;20172;-79
2021/04/19 05:54:10;;;;;;;19.27;17.27;;;;;;;;;;5027417;28;20173;-79
2021/04/19 05:56:35;;;;;;;18.53;16.57;;;;;;;;;;5035015;28;20215;-79
2021/04/19 05:59:03;;;;;;;18.38;16.58;;;;;;;;;;5035421;28;20520;-79
2021/04/19 06:01:30;;;;;;;14.23;12.82;;;;;;;;;;5034773;28;20642;-79
2021/04/19 06:03:58;;;;;;;15.75;14.30;;;;;;;;;;5034646;28;20231;-79
2021/04/19 06:06:32;;;;;;;13.82;12.60;;;;;;;;;;5034570;28;20172;-79
2021/04/19 06:08:58;;;;;;;15.05;13.65;;;;;;;;;;5035540;28;20218;-79
2021/04/19 06:11:26;;;;;;;15.20;13.80;;;;;;;;;;5034790;28;20531;-78
2021/04/19 06:13:51;;;;;;;15.45;14.05;;;;;;;;;;5034485;28;20184;-79
2021/04/19 06:16:18;;;;;;;15.97;14.37;;;;;;;;;;5034855;28;20230;-79
2021/04/19 06:18:44;;;;;;;15.23;13.27;;;;;;;;;;5034506;28;20535;-78
2021/04/19 06:21:10;;;;;;;13.17;11.97;;;;;;;;;;5034960;28;20164;-78
2021/04/19 06:23:35;;;;;;;13.67;12.17;;;;;;;;;;5034919;28;20186;-79
2021/04/19 06:26:01;;;;;;;13.33;12.03;;;;;;;;;;5035095;28;20204;-79
2021/04/19 06:28:26;;;;;;;12.83;11.63;;;;;;;;;;5035008;28;20188;-79
2021/04/19 06:30:52;;;;;;;13.30;12.00;;;;;;;;;;5034666;28;20673;-78
2021/04/19 06:33:19;;;;;;;12.43;11.30;;;;;;;;;;5034460;28;20160;-78
2021/04/19 06:35:44;;;;;;;11.43;10.15;;;;;;;;;;5034708;28;20244;-78
2021/04/19 06:38:10;;;;;;;11.40;10.40;;;;;;;;;;5034116;28;20208;-79
2021/04/19 06:40:37;;;;;;;10.85;9.75;;;;;;;;;;5034774;28;20152;-78
2021/04/19 06:43:03;;;;;;;11.43;10.45;;;;;;;;;;5034356;28;20678;-79
2021/04/19 06:45:28;;;;;;;11.05;10.07;;;;;;;;;;5033796;28;20173;-79
2021/04/19 06:47:53;;;;;;;9.68;8.88;;;;;;;;;;5034249;28;20205;-79
2021/04/19 06:50:19;;;;;;;9.27;8.48;;;;;;;;;;5033912;28;20676;-79
2021/04/19 06:52:48;;;;;;;11.18;10.05;;;;;;;;;;5034227;28;20653;-79
2021/04/19 06:55:17;;;;;;;10.35;9.38;;;;;;;;;;5033887;28;20176;-79
2021/04/19 06:57:49;;;;;;;10.18;9.15;;;;;;;;;;5033976;28;20164;-79
2021/04/19 07:00:14;;;;;;;9.27;8.50;;;;;;;;;;5033982;28;20173;-78
2021/04/19 07:02:44;;;;;;;8.38;7.57;;;;;;;;;;5032757;28;20176;-79
2021/04/19 07:05:10;;;;;;;8.43;7.63;;;;;;;;;;5033695;28;20571;-79
2021/04/19 07:07:37;;;;;;;8.25;7.55;;;;;;;;;;5034206;28;20176;-79
2021/04/19 07:10:03;;;;;;;7.75;7.10;;;;;;;;;;5033987;28;20204;-79
2021/04/19 07:12:32;;;;;;;7.28;6.78;;;;;;;;;;5034036;28;20184;-79
2021/04/19 07:14:57;;;;;;;8.13;7.43;;;;;;;;;;5032605;28;20176;-79
2021/04/19 07:17:25;;;;;;;8.70;8.00;;;;;;;;;;5033058;28;20169;-79
2021/04/19 07:19:50;;;;;;;6.68;6.18;;;;;;;;;;5034421;28;20175;-79
2021/04/19 07:22:17;;;;;;;6.97;6.30;;;;;;;;;;5034144;28;20169;-79
2021/04/19 07:24:42;;;;;;;6.82;6.28;;;;;;;;;;5033893;28;20168;-79
2021/04/19 07:27:09;;;;;;;7.13;6.53;;;;;;;;;;5033812;28;20565;-79
2021/04/19 07:29:35;;;;;;;7.78;5.97;;;;;;;;;;5033755;28;20253;-79
2021/04/19 07:32:00;;;;;;;6.40;5.80;;;;;;;;;;5033502;28;20173;-79
2021/04/19 07:34:27;;;;;;;5.75;5.22;;;;;;;;;;5034188;28;20172;-79
2021/04/19 07:36:53;;;;;;;7.55;5.13;;;;;;;;;;5033406;28;20172;-79
2021/04/19 07:39:20;;;;;;;6.05;5.28;;;;;;;;;;5033542;28;20224;-79
2021/04/19 07:41:55;;;;;;;5.43;5.03;;;;;;;;;;5033649;28;20165;-79
2021/04/19 07:44:34;;;;;;;5.88;5.38;;;;;;;;;;5034177;28;20188;-79
2021/04/19 07:47:18;;;;;;;6.03;5.45;;;;;;;;;;5033354;28;20196;-78
2021/04/19 07:50:05;;;;;;;6.15;5.32;;;;;;;;;;5033523;28;20211;-78
2021/04/19 07:52:32;;;;;;;5.18;4.70;;;;;;;;;;5033286;28;20188;-79
2021/04/19 07:55:13;;;;;;;5.85;5.22;;;;;;;;;;5033827;28;20177;-78
2021/04/19 07:57:39;;;;;;;7.97;5.15;;;;;;;;;;5032746;28;20177;-79
2021/04/19 08:00:06;;;;;;;8.35;5.30;;;;;;;;;;5032259;28;20176;-79
2021/04/19 08:02:31;;;;;;;5.88;5.32;;;;;;;;;;5033554;28;20535;-79
2021/04/19 08:04:57;;;;;;;4.82;4.43;;;;;;;;;;5033400;28;20169;-79
2021/04/19 08:07:31;;;;;;;4.63;4.22;;;;;;;;;;5033460;28;20165;-79
2021/04/19 08:10:02;;;;;;;4.97;4.53;;;;;;;;;;5034321;28;20182;-78
2021/04/19 08:12:36;;;;;;;8.00;4.25;;;;;;;;;;5037130;28;20291;-79
2021/04/19 08:15:03;;;;;;;4.32;4.00;;;;;;;;;;5036801;28;20175;-79
2021/04/19 08:17:29;;;;;;;4.32;4.03;;;;;;;;;;5036935;28;20169;-79
2021/04/19 08:19:55;;;;;;;4.80;4.30;;;;;;;;;;5037298;28;20215;-79
2021/04/19 08:22:24;;;;;;;4.47;4.07;;;;;;;;;;5037193;28;20172;-79
2021/04/19 08:24:49;;;;;;;6.95;4.53;;;;;;;;;;5036544;28;20251;-79
2021/04/19 08:27:18;;;;;;;4.33;3.97;;;;;;;;;;5036587;28;20598;-79
2021/04/19 08:29:46;;;;;;;5.20;4.20;;;;;;;;;;5036403;28;20549;-79
2021/04/19 08:32:12;;;;;;;4.13;3.73;;;;;;;;;;5036972;28;20196;-79
2021/04/19 08:34:38;;;;;;;3.90;3.50;;;;;;;;;;5036705;28;20611;-79
2021/04/19 08:37:04;;;;;;;3.53;3.33;;;;;;;;;;5036722;28;20251;-79
2021/04/19 08:39:30;;;;;;;4.93;3.60;;;;;;;;;;5036756;28;20698;-79
2021/04/19 08:41:59;;;;;;;4.27;3.90;;;;;;;;;;5036740;28;20264;-79
2021/04/19 08:44:25;;;;;;;4.50;4.10;;;;;;;;;;5037120;28;20194;-79
2021/04/19 08:46:50;;;;;;;4.23;3.93;;;;;;;;;;5036196;28;20260;-80
2021/04/19 08:49:16;;;;;;;4.13;3.73;;;;;;;;;;5036449;28;20275;-79
2021/04/19 08:51:41;;;;;;;4.10;3.70;;;;;;;;;;5038745;28;20172;-79
2021/04/19 08:54:06;;;;;;;4.10;3.80;;;;;;;;;;5052583;28;20172;-79
2021/04/19 08:56:32;;;;;;;4.67;4.23;;;;;;;;;;5056274;28;20174;-79
2021/04/19 08:58:58;;;;;;;4.50;4.10;;;;;;;;;;5055998;28;20176;-78
2021/04/19 09:01:23;;;;;;;4.33;3.93;;;;;;;;;;5038834;28;20635;-79
2021/04/19 09:04:02;;;;;;;5.73;5.13;;;;;;;;;;5035404;28;20252;-79
2021/04/19 09:06:38;;;;;;;3.73;3.20;;;;;;;;;;5036120;28;20173;-78
2021/04/19 09:09:03;;;;;;;4.33;3.70;;;;;;;;;;5035859;28;20245;-79
2021/04/19 09:11:29;;;;;;;5.17;4.23;;;;;;;;;;5035522;28;20180;-79
2021/04/19 09:14:04;;;;;;;5.10;4.60;;;;;;;;;;5035630;28;20161;-79
2021/04/19 09:16:41;;;;;;;3.80;3.50;;;;;;;;;;5035905;28;20218;-79
2021/04/19 09:19:07;;;;;;;4.17;3.87;;;;;;;;;;5035439;28;20642;-78
2021/04/19 09:21:43;;;;;;;4.67;4.27;;;;;;;;;;5035412;28;20514;-78
2021/04/19 09:24:10;;;;;;;5.83;5.30;;;;;;;;;;5035745;28;20172;-78
2021/04/19 09:26:44;;;;;;;4.27;3.47;;;;;;;;;;5035559;28;20161;-79
2021/04/19 09:29:09;;;;;;;4.60;4.17;;;;;;;;;;5035110;28;20204;-79
2021/04/19 09:31:53;;;;;;;4.60;4.30;;;;;;;;;;5034990;28;20710;-78
2021/04/19 09:34:19;;;;;;;4.80;4.30;;;;;;;;;;5035218;28;20172;-78
2021/04/19 09:36:51;;;;;;;4.87;4.27;;;;;;;;;;5035191;28;20168;-78
2021/04/19 09:39:34;;;;;;;6.03;4.43;;;;;;;;;;5035297;28;20260;-78
2021/04/19 09:42:00;;;;;;;5.10;4.70;;;;;;;;;;5035320;28;20169;-79
2021/04/19 09:44:26;;;;;;;5.00;4.60;;;;;;;;;;5028923;28;20204;-78
2021/04/19 09:46:52;;;;;;;5.80;5.30;;;;;;;;;;5026481;28;20208;-77
2021/04/19 09:49:20;;;;;;;5.20;4.80;;;;;;;;;;5035052;28;20201;-78
2021/04/19 09:51:45;;;;;;;5.07;4.67;;;;;;;;;;5034897;28;20199;-78
2021/04/19 09:54:12;;;;;;;5.83;4.57;;;;;;;;;;5035026;28;20181;-78
2021/04/19 09:56:45;;;;;;;5.30;4.80;;;;;;;;;;5033505;28;20222;-79
2021/04/19 09:59:31;;;;;;;4.97;4.47;;;;;;;;;;5034990;28;20176;-78
2021/04/19 10:02:00;;;;;;;5.53;5.03;;;;;;;;;;5034469;28;20184;-78
2021/04/19 10:04:26;;;;;;;5.57;4.50;;;;;;;;;;5034052;28;20196;-78
2021/04/19 10:07:00;;;;;;;4.83;4.40;;;;;;;;;;5034337;28;20550;-78
2021/04/19 10:09:27;;;;;;;5.07;4.37;;;;;;;;;;5034714;28;20200;-78
2021/04/19 10:11:58;;;;;;;4.83;4.00;;;;;;;;;;5033930;28;20177;-79
2021/04/19 10:14:25;;;;;;;5.83;5.33;;;;;;;;;;5034562;28;20524;-79
2021/04/19 10:16:51;;;;;;;5.60;5.00;;;;;;;;;;5034860;28;20169;-79
2021/04/19 10:19:43;;;;;;;8.07;5.93;;;;;;;;;;5034700;28;20199;-79
2021/04/19 10:22:09;;;;;;;4.87;4.47;;;;;;;;;;5034290;28;20187;-78
2021/04/19 10:24:35;;;;;;;5.47;4.97;;;;;;;;;;5034250;28;20177;-78
2021/04/19 10:27:00;;;;;;;5.73;4.90;;;;;;;;;;5034961;28;20576;-78
2021/04/19 10:29:29;;;;;;;5.43;4.93;;;;;;;;;;5034255;28;20259;-79
2021/04/19 10:31:58;;;;;;;6.33;5.40;;;;;;;;;;5034342;28;20219;-78
2021/04/19 10:34:25;;;;;;;5.87;5.40;;;;;;;;;;5032132;28;20188;-78
2021/04/19 10:37:00;;;;;;;5.50;5.00;;;;;;;;;;5032823;28;20259;-78
2021/04/19 10:39:26;;;;;;;5.13;4.63;;;;;;;;;;5032411;28;20232;-79
2021/04/19 10:41:53;;;;;;;6.10;5.50;;;;;;;;;;5032180;28;20203;-79
2021/04/19 10:44:25;;;;;;;6.33;5.73;;;;;;;;;;5031219;28;20211;-80
2021/04/19 10:46:50;;;;;;;8.20;5.93;;;;;;;;;;5032611;28;20161;-79
2021/04/19 10:49:23;;;;;;;6.73;6.17;;;;;;;;;;5031784;28;20263;-79
2021/04/19 10:51:55;;;;;;;6.00;5.50;;;;;;;;;;5032306;28;20184;-79
2021/04/19 10:54:25;;;;;;;6.57;5.97;;;;;;;;;;5032375;28;20180;-79
2021/04/19 10:56:50;;;;;;;7.13;6.47;;;;;;;;;;5032298;28;20230;-79
2021/04/19 10:59:16;;;;;;;6.77;6.07;;;;;;;;;;5032172;28;20200;-79
2021/04/19 11:01:43;;;;;;;8.07;7.27;;;;;;;;;;5031643;28;20180;-79
2021/04/19 11:04:09;;;;;;;7.90;5.37;;;;;;;;;;5032144;28;20215;-79
2021/04/19 11:06:35;;;;;;;6.53;5.93;;;;;;;;;;5030834;28;20200;-79
2021/04/19 11:09:05;;;;;;;8.10;6.70;;;;;;;;;;5032059;28;20737;-79
2021/04/19 11:11:30;;;;;;;6.50;5.90;;;;;;;;;;5032443;28;20232;-79
2021/04/19 11:14:12;;;;;;;6.37;5.40;;;;;;;;;;5031945;28;20176;-78
2021/04/19 11:16:53;;;;;;;6.73;6.13;;;;;;;;;;5031776;28;20180;-79
2021/04/19 11:19:28;;;;;;;7.47;6.70;;;;;;;;;;5030490;28;20180;-80
2021/04/19 11:21:54;;;;;;;6.20;5.57;;;;;;;;;;5029810;28;20180;-79
2021/04/19 11:24:19;;;;;;;5.83;5.33;;;;;;;;;;5031906;28;20185;-79
2021/04/19 11:26:44;;;;;;;7.50;5.40;;;;;;;;;;5031878;28;20231;-79
2021/04/19 11:29:10;;;;;;;5.10;4.70;;;;;;;;;;5031789;28;20582;-79
2021/04/19 11:31:49;;;;;;;5.80;5.40;;;;;;;;;;5031669;28;20531;-79
2021/04/19 11:34:15;;;;;;;6.23;5.00;;;;;;;;;;5031618;28;20167;-79
2021/04/19 11:36:42;;;;;;;5.53;5.03;;;;;;;;;;5031427;28;20215;-79
2021/04/19 11:39:18;;;;;;;5.50;4.90;;;;;;;;;;5031627;28;20236;-79
2021/04/19 11:41:44;;;;;;;5.60;5.10;;;;;;;;;;5031642;28;20191;-80
2021/04/19 11:44:09;;;;;;;5.27;4.80;;;;;;;;;;5029406;28;20655;-79
2021/04/19 11:46:55;;;;;;;5.50;5.00;;;;;;;;;;5036462;28;20234;-79
2021/04/19 11:49:22;;;;;;;7.50;5.50;;;;;;;;;;5035348;28;20270;-79
2021/04/19 11:51:48;;;;;;;5.20;4.70;;;;;;;;;;5035399;28;20227;-79
2021/04/19 11:54:13;;;;;;;6.07;5.43;;;;;;;;;;5037444;28;20628;-79
2021/04/19 11:56:38;;;;;;;5.40;4.90;;;;;;;;;;5037387;28;20195;-79
2021/04/19 11:59:07;;;;;;;5.43;4.93;;;;;;;;;;5037314;28;20176;-79
2021/04/19 12:01:34;;;;;;;7.37;5.37;;;;;;;;;;5036518;28;20259;-79
2021/04/19 12:04:02;;;;;;;6.50;5.10;;;;;;;;;;5036721;28;20517;-79
2021/04/19 12:06:28;;;;;;;5.10;4.17;;;;;;;;;;5036031;28;20181;-79
2021/04/19 12:08:53;;;;;;;5.43;4.70;;;;;;;;;;5036826;28;20521;-79
2021/04/19 12:11:21;;;;;;;5.97;5.47;;;;;;;;;;5035972;28;20190;-79
2021/04/19 12:13:47;;;;;;;8.17;4.97;;;;;;;;;;5036494;28;20184;-79
2021/04/19 12:16:12;;;;;;;5.73;5.17;;;;;;;;;;5034643;28;20173;-80
2021/04/19 12:18:38;;;;;;;5.53;5.00;;;;;;;;;;5036798;28;20646;-79
2021/04/19 12:21:04;;;;;;;5.60;5.10;;;;;;;;;;5036917;28;20177;-79
2021/04/19 12:23:30;;;;;;;5.27;4.80;;;;;;;;;;5037170;28;20173;-79
2021/04/19 12:25:55;;;;;;;5.93;5.43;;;;;;;;;;5036009;28;20650;-79
2021/04/19 12:28:21;;;;;;;5.30;4.80;;;;;;;;;;5036178;28;20208;-79
2021/04/19 12:30:47;;;;;;;5.57;5.07;;;;;;;;;;5036908;28;20173;-79
2021/04/19 12:33:13;;;;;;;5.67;5.13;;;;;;;;;;5034556;28;20608;-80
2021/04/19 12:35:38;;;;;;;6.60;5.47;;;;;;;;;;5034946;28;20272;-79
2021/04/19 12:38:04;;;;;;;10.73;6.10;;;;;;;;;;5031352;28;20177;-79
2021/04/19 12:40:29;;;;;;;5.50;4.93;;;;;;;;;;5026217;28;20173;-79
2021/04/19 12:42:55;;;;;;;6.27;5.67;;;;;;;;;;5035395;28;20525;-79
2021/04/19 12:45:24;;;;;;;6.57;6.00;;;;;;;;;;5032354;28;20291;-79
2021/04/19 12:47:50;;;;;;;8.53;6.43;;;;;;;;;;5035929;28;20185;-79
2021/04/19 12:50:15;;;;;;;7.83;6.70;;;;;;;;;;5035953;28;20173;-79
2021/04/19 12:52:41;;;;;;;6.77;6.17;;;;;;;;;;5036110;28;20624;-79
2021/04/19 12:55:06;;;;;;;8.20;5.77;;;;;;;;;;5035662;28;20173;-79
2021/04/19 12:57:32;;;;;;;6.20;5.60;;;;;;;;;;5036134;28;20177;-79
2021/04/19 12:59:57;;;;;;;7.57;5.90;;;;;;;;;;5034989;28;20183;-79
2021/04/19 13:02:22;;;;;;;6.90;6.20;;;;;;;;;;5034316;28;20173;-79
2021/04/19 13:04:47;;;;;;;6.10;5.50;;;;;;;;;;5033927;28;20177;-79
2021/04/19 13:07:13;;;;;;;9.33;5.90;;;;;;;;;;5033527;28;20176;-79
2021/04/19 13:09:38;;;;;;;5.23;4.73;;;;;;;;;;5033695;28;20693;-79
2021/04/19 13:12:04;;;;;;;6.47;5.87;;;;;;;;;;5033927;28;20215;-80
2021/04/19 13:14:29;;;;;;;7.60;5.87;;;;;;;;;;5033843;28;20164;-79
2021/04/19 13:16:54;;;;;;;7.10;6.40;;;;;;;;;;5033654;28;20176;-79
2021/04/19 13:19:20;;;;;;;6.40;5.70;;;;;;;;;;5033758;28;20184;-79
2021/04/19 13:21:45;;;;;;;6.33;5.50;;;;;;;;;;5035644;28;20176;-79
2021/04/19 13:24:10;;;;;;;6.33;5.73;;;;;;;;;;5034587;28;20581;-79
2021/04/19 13:26:36;;;;;;;7.33;6.23;;;;;;;;;;5034457;28;20556;-79
2021/04/19 13:29:02;;;;;;;7.37;6.67;;;;;;;;;;5035004;28;20219;-79
2021/04/19 13:31:28;;;;;;;8.43;6.30;;;;;;;;;;5034827;28;20177;-79
2021/04/19 13:33:53;;;;;;;7.80;6.40;;;;;;;;;;5033461;28;20177;-79
2021/04/19 13:36:19;;;;;;;8.83;6.83;;;;;;;;;;5035928;28;20511;-79
2021/04/19 13:38:44;;;;;;;7.63;6.83;;;;;;;;;;5035475;28;20766;-78
2021/04/19 13:41:10;;;;;;;7.33;6.30;;;;;;;;;;5035087;28;20164;-78
2021/04/19 13:43:36;;;;;;;7.70;6.40;;;;;;;;;;5034956;28;20193;-79
2021/04/19 13:46:01;;;;;;;7.10;6.50;;;;;;;;;;5035094;28;20180;-79
2021/04/19 13:48:26;;;;;;;7.30;5.57;;;;;;;;;;5035173;28;20200;-79
2021/04/19 13:50:52;;;;;;;7.50;6.40;;;;;;;;;;5035076;28;20184;-78
2021/04/19 13:53:17;;;;;;;6.77;5.73;;;;;;;;;;5035343;28;20176;-79
2021/04/19 13:55:42;;;;;;;7.70;6.23;;;;;;;;;;5035189;28;20210;-79
2021/04/19 13:58:08;;;;;;;9.97;6.47;;;;;;;;;;5034966;28;20632;-79
2021/04/19 14:00:33;;;;;;;7.30;6.30;;;;;;;;;;5035225;28;20176;-79
2021/04/19 14:02:59;;;;;;;9.53;6.63;;;;;;;;;;5035054;28;20165;-80
2021/04/19 14:05:24;;;;;;;6.93;6.20;;;;;;;;;;5033313;28;20188;-79
2021/04/19 14:07:49;;;;;;;8.07;6.73;;;;;;;;;;5033465;28;20176;-79
2021/04/19 14:10:15;;;;;;;8.23;6.60;;;;;;;;;;5034869;28;20587;-80
2021/04/19 14:12:41;;;;;;;7.07;6.37;;;;;;;;;;5035230;28;20590;-81
2021/04/19 14:15:08;;;;;;;7.57;6.80;;;;;;;;;;5034852;28;20172;-81
2021/04/19 14:17:33;;;;;;;6.80;6.10;;;;;;;;;;5034555;28;20172;-81
2021/04/19 14:19:58;;;;;;;6.10;5.60;;;;;;;;;;5034529;28;20602;-81
2021/04/19 14:22:25;;;;;;;7.77;5.33;;;;;;;;;;5034990;28;20176;-81
2021/04/19 14:24:50;;;;;;;6.57;5.90;;;;;;;;;;5034644;28;20207;-81
2021/04/19 14:27:16;;;;;;;6.80;6.20;;;;;;;;;;5034681;28;20196;-81
2021/04/19 14:29:41;;;;;;;9.17;8.00;;;;;;;;;;5034850;28;20543;-81
2021/04/19 14:32:07;;;;;;;7.07;5.33;;;;;;;;;;5034236;28;20179;-82